sensor_id;sensor_type;location;lat;lon;timestamp;temperature;humidity
1297;DHT22;641;48.492;9.184;2024-01-11T00:00:26;-5.50;99.90
1297;DHT22;641;48.492;9.184;2024-01-11T00:02:52;-5.40;99.90
1297;DHT22;641;48.492;9.184;2024-01-11T00:05:17;-5.20;99.90
1297;DHT22;641;48.492;9.184;2024-01-11T00:07:43;-5.10;99.90
1297;DHT22;641;48.492;9.184;2024-01-11T00:10:09;-5.20;99.90
1297;DHT22;641;48.492;9.184;2024-01-11T00:12:34;-4.80;99.90
1297;DHT22;641;48.492;9.184;2024-01-11T00:15:00;-4.70;99.90
1297;DHT22;641;48.492;9.184;2024-01-11T00:17:25;-5.00;99.90
1297;DHT22;641;48.492;9.184;2024-01-11T00:19:51;-5.30;99.90
1297;DHT22;641;48.492;9.184;2024-01-11T00:22:17;-5.60;99.90
1297;DHT22;641;48.492;9.184;2024-01-11T00:24:43;-5.80;99.90
1297;DHT22;641;48.492;9.184;2024-01-11T00:27:08;-6.00;99.90
1297;DHT22;641;48.492;9.184;2024-01-11T00:29:35;-5.90;99.90
1297;DHT22;641;48.492;9.184;2024-01-11T00:32:02;-5.80;99.90
1297;DHT22;641;48.492;9.184;2024-01-11T00:34:28;-5.80;99.90
1297;DHT22;641;48.492;9.184;2024-01-11T00:36:54;-5.80;99.90
1297;DHT22;641;48.492;9.184;2024-01-11T00:39:19;-5.50;99.90
1297;DHT22;641;48.492;9.184;2024-01-11T00:41:45;-5.00;99.90
1297;DHT22;641;48.492;9.184;2024-01-11T00:44:10;-5.20;99.90
1297;DHT22;641;48.492;9.184;2024-01-11T00:46:36;-5.40;99.90
1297;DHT22;641;48.492;9.184;2024-01-11T00:49:03;-5.50;99.90
1297;DHT22;641;48.492;9.184;2024-01-11T00:51:29;-5.40;99.90
1297;DHT22;641;48.492;9.184;2024-01-11T00:53:54;-4.90;99.90
1297;DHT22;641;48.492;9.184;2024-01-11T00:56:20;-4.70;99.90
1297;DHT22;641;48.492;9.184;2024-01-11T00:58:46;-5.00;99.90
1297;DHT22;641;48.492;9.184;2024-01-11T01:01:12;-5.30;99.90
1297;DHT22;641;48.492;9.184;2024-01-11T01:03:38;-5.20;99.90
1297;DHT22;641;48.492;9.184;2024-01-11T01:06:04;-5.20;99.90
1297;DHT22;641;48.492;9.184;2024-01-11T01:08:30;-5.50;99.90
1297;DHT22;641;48.492;9.184;2024-01-11T01:10:55;-5.40;99.90
1297;DHT22;641;48.492;9.184;2024-01-11T01:13:21;-5.30;99.90
1297;DHT22;641;48.492;9.184;2024-01-11T01:15:47;-5.30;99.90
1297;DHT22;641;48.492;9.184;2024-01-11T01:18:12;-5.30;99.90
1297;DHT22;641;48.492;9.184;2024-01-11T01:20:38;-5.10;99.90
1297;DHT22;641;48.492;9.184;2024-01-11T01:23:03;-4.90;99.90
1297;DHT22;641;48.492;9.184;2024-01-11T01:25:29;-5.00;99.90
1297;DHT22;641;48.492;9.184;2024-01-11T01:27:55;-5.60;99.90
1297;DHT22;641;48.492;9.184;2024-01-11T01:30:21;-5.80;99.90
1297;DHT22;641;48.492;9.184;2024-01-11T01:32:47;-6.10;99.90
1297;DHT22;641;48.492;9.184;2024-01-11T01:35:12;-5.80;99.90
1297;DHT22;641;48.492;9.184;2024-01-11T01:37:38;-5.90;99.90
1297;DHT22;641;48.492;9.184;2024-01-11T01:40:04;-6.10;99.90
1297;DHT22;641;48.492;9.184;2024-01-11T01:42:29;-5.90;99.90
1297;DHT22;641;48.492;9.184;2024-01-11T01:44:55;-5.90;99.90
1297;DHT22;641;48.492;9.184;2024-01-11T01:47:21;-6.10;99.90
1297;DHT22;641;48.492;9.184;2024-01-11T01:49:48;-5.90;99.90
1297;DHT22;641;48.492;9.184;2024-01-11T01:52:14;-5.50;99.90
1297;DHT22;641;48.492;9.184;2024-01-11T01:54:40;-5.40;99.90
1297;DHT22;641;48.492;9.184;2024-01-11T01:57:07;-5.70;99.90
1297;DHT22;641;48.492;9.184;2024-01-11T01:59:33;-5.80;99.90
1297;DHT22;641;48.492;9.184;2024-01-11T02:01:59;-5.70;99.90
1297;DHT22;641;48.492;9.184;2024-01-11T02:04:25;-5.90;99.90
1297;DHT22;641;48.492;9.184;2024-01-11T02:06:53;-5.70;99.90
1297;DHT22;641;48.492;9.184;2024-01-11T02:09:18;-5.60;99.90
1297;DHT22;641;48.492;9.184;2024-01-11T02:11:45;-5.50;99.90
1297;DHT22;641;48.492;9.184;2024-01-11T02:14:10;-5.50;99.90
1297;DHT22;641;48.492;9.184;2024-01-11T02:16:36;-5.40;99.90
1297;DHT22;641;48.492;9.184;2024-01-11T02:19:04;-5.30;99.90
1297;DHT22;641;48.492;9.184;2024-01-11T02:21:31;-5.60;99.90
1297;DHT22;641;48.492;9.184;2024-01-11T02:24:05;-5.30;99.90
1297;DHT22;641;48.492;9.184;2024-01-11T02:26:31;-5.70;99.90
1297;DHT22;641;48.492;9.184;2024-01-11T02:28:57;-5.70;99.90
1297;DHT22;641;48.492;9.184;2024-01-11T02:31:24;-5.50;99.90
1297;DHT22;641;48.492;9.184;2024-01-11T02:33:50;-5.40;99.90
1297;DHT22;641;48.492;9.184;2024-01-11T02:36:16;-5.30;99.90
1297;DHT22;641;48.492;9.184;2024-01-11T02:38:43;-5.60;99.90
1297;DHT22;641;48.492;9.184;2024-01-11T02:41:08;-5.60;99.90
1297;DHT22;641;48.492;9.184;2024-01-11T02:43:34;-5.40;99.90
1297;DHT22;641;48.492;9.184;2024-01-11T02:46:03;-5.40;99.90
1297;DHT22;641;48.492;9.184;2024-01-11T02:48:31;-5.60;99.90
1297;DHT22;641;48.492;9.184;2024-01-11T02:50:57;-5.70;99.90
1297;DHT22;641;48.492;9.184;2024-01-11T02:53:23;-5.70;99.90
1297;DHT22;641;48.492;9.184;2024-01-11T02:55:50;-5.80;99.90
1297;DHT22;641;48.492;9.184;2024-01-11T02:58:16;-5.70;99.90
1297;DHT22;641;48.492;9.184;2024-01-11T03:00:41;-5.40;99.90
1297;DHT22;641;48.492;9.184;2024-01-11T03:03:07;-5.70;99.90
1297;DHT22;641;48.492;9.184;2024-01-11T03:05:32;-5.50;99.90
1297;DHT22;641;48.492;9.184;2024-01-11T03:07:58;-5.50;99.90
1297;DHT22;641;48.492;9.184;2024-01-11T03:10:23;-6.00;99.90
1297;DHT22;641;48.492;9.184;2024-01-11T03:12:49;-6.30;99.90
1297;DHT22;641;48.492;9.184;2024-01-11T03:15:15;-6.30;99.90
1297;DHT22;641;48.492;9.184;2024-01-11T03:17:41;-6.10;99.90
1297;DHT22;641;48.492;9.184;2024-01-11T03:20:07;-5.80;99.90
1297;DHT22;641;48.492;9.184;2024-01-11T03:22:33;-6.10;99.90
1297;DHT22;641;48.492;9.184;2024-01-11T03:24:59;-6.10;99.90
1297;DHT22;641;48.492;9.184;2024-01-11T03:27:25;-6.20;99.90
1297;DHT22;641;48.492;9.184;2024-01-11T03:29:51;-6.20;99.90
1297;DHT22;641;48.492;9.184;2024-01-11T03:32:16;-6.40;99.90
1297;DHT22;641;48.492;9.184;2024-01-11T03:34:42;-6.60;99.90
1297;DHT22;641;48.492;9.184;2024-01-11T03:37:08;-6.50;99.90
1297;DHT22;641;48.492;9.184;2024-01-11T03:39:34;-6.10;99.90
1297;DHT22;641;48.492;9.184;2024-01-11T03:42:00;-5.60;99.90
1297;DHT22;641;48.492;9.184;2024-01-11T03:44:25;-5.40;99.90
1297;DHT22;641;48.492;9.184;2024-01-11T03:46:51;-5.90;99.90
1297;DHT22;641;48.492;9.184;2024-01-11T03:49:17;-5.90;99.90
1297;DHT22;641;48.492;9.184;2024-01-11T03:51:43;-6.30;99.90
1297;DHT22;641;48.492;9.184;2024-01-11T03:54:09;-6.60;99.90
1297;DHT22;641;48.492;9.184;2024-01-11T03:56:38;-6.70;99.90
1297;DHT22;641;48.492;9.184;2024-01-11T03:59:04;-6.30;99.90
1297;DHT22;641;48.492;9.184;2024-01-11T04:01:31;-6.20;99.90
1297;DHT22;641;48.492;9.184;2024-01-11T04:03:57;-5.80;99.90
1297;DHT22;641;48.492;9.184;2024-01-11T04:06:23;-6.00;99.90
1297;DHT22;641;48.492;9.184;2024-01-11T04:08:49;-5.80;99.90
1297;DHT22;641;48.492;9.184;2024-01-11T04:11:16;-5.70;99.90
1297;DHT22;641;48.492;9.184;2024-01-11T04:13:41;-6.00;99.90
1297;DHT22;641;48.492;9.184;2024-01-11T04:16:07;-5.90;99.90
1297;DHT22;641;48.492;9.184;2024-01-11T04:18:33;-6.10;99.90
1297;DHT22;641;48.492;9.184;2024-01-11T04:20:58;-6.20;99.90
1297;DHT22;641;48.492;9.184;2024-01-11T04:23:24;-6.00;99.90
1297;DHT22;641;48.492;9.184;2024-01-11T04:25:50;-5.90;99.90
1297;DHT22;641;48.492;9.184;2024-01-11T04:28:18;-6.10;99.90
1297;DHT22;641;48.492;9.184;2024-01-11T04:30:44;-6.10;99.90
1297;DHT22;641;48.492;9.184;2024-01-11T04:33:10;-6.10;99.90
1297;DHT22;641;48.492;9.184;2024-01-11T04:35:36;-5.80;99.90
1297;DHT22;641;48.492;9.184;2024-01-11T04:38:02;-5.70;99.90
1297;DHT22;641;48.492;9.184;2024-01-11T04:40:27;-5.70;99.90
1297;DHT22;641;48.492;9.184;2024-01-11T04:42:53;-5.80;99.90
1297;DHT22;641;48.492;9.184;2024-01-11T04:45:18;-5.90;99.90
1297;DHT22;641;48.492;9.184;2024-01-11T04:47:44;-5.60;99.90
1297;DHT22;641;48.492;9.184;2024-01-11T04:50:09;-5.60;99.90
1297;DHT22;641;48.492;9.184;2024-01-11T04:52:35;-5.90;99.90
1297;DHT22;641;48.492;9.184;2024-01-11T04:55:01;-6.30;99.90
1297;DHT22;641;48.492;9.184;2024-01-11T04:57:27;-6.20;99.90
1297;DHT22;641;48.492;9.184;2024-01-11T04:59:53;-6.10;99.90
1297;DHT22;641;48.492;9.184;2024-01-11T05:02:20;-6.30;99.90
1297;DHT22;641;48.492;9.184;2024-01-11T05:04:47;-6.60;99.90
1297;DHT22;641;48.492;9.184;2024-01-11T05:07:13;-6.50;99.90
1297;DHT22;641;48.492;9.184;2024-01-11T05:09:38;-6.30;99.90
1297;DHT22;641;48.492;9.184;2024-01-11T05:12:04;-5.80;99.90
1297;DHT22;641;48.492;9.184;2024-01-11T05:14:30;-5.70;99.90
1297;DHT22;641;48.492;9.184;2024-01-11T05:16:55;-5.60;99.90
1297;DHT22;641;48.492;9.184;2024-01-11T05:19:21;-5.50;99.90
1297;DHT22;641;48.492;9.184;2024-01-11T05:21:47;-5.70;99.90
1297;DHT22;641;48.492;9.184;2024-01-11T05:24:12;-5.80;99.90
1297;DHT22;641;48.492;9.184;2024-01-11T05:26:38;-5.70;99.90
1297;DHT22;641;48.492;9.184;2024-01-11T05:29:03;-5.70;99.90
1297;DHT22;641;48.492;9.184;2024-01-11T05:31:30;-5.60;99.90
1297;DHT22;641;48.492;9.184;2024-01-11T05:33:55;-5.80;99.90
1297;DHT22;641;48.492;9.184;2024-01-11T05:36:21;-5.60;99.90
1297;DHT22;641;48.492;9.184;2024-01-11T05:38:47;-5.50;99.90
1297;DHT22;641;48.492;9.184;2024-01-11T05:41:13;-5.70;99.90
1297;DHT22;641;48.492;9.184;2024-01-11T05:43:40;-5.60;99.90
1297;DHT22;641;48.492;9.184;2024-01-11T05:46:06;-5.70;99.90
1297;DHT22;641;48.492;9.184;2024-01-11T05:48:32;-5.60;99.90
1297;DHT22;641;48.492;9.184;2024-01-11T05:50:58;-5.90;99.90
1297;DHT22;641;48.492;9.184;2024-01-11T05:53:23;-6.20;99.90
1297;DHT22;641;48.492;9.184;2024-01-11T05:55:50;-6.50;99.90
1297;DHT22;641;48.492;9.184;2024-01-11T05:58:15;-6.50;99.90
1297;DHT22;641;48.492;9.184;2024-01-11T06:00:41;-6.50;99.90
1297;DHT22;641;48.492;9.184;2024-01-11T06:03:07;-6.40;99.90
1297;DHT22;641;48.492;9.184;2024-01-11T06:05:33;-6.20;99.90
1297;DHT22;641;48.492;9.184;2024-01-11T06:07:59;-5.90;99.90
1297;DHT22;641;48.492;9.184;2024-01-11T06:10:24;-5.90;99.90
1297;DHT22;641;48.492;9.184;2024-01-11T06:12:50;-6.00;99.90
1297;DHT22;641;48.492;9.184;2024-01-11T06:15:15;-6.00;99.90
1297;DHT22;641;48.492;9.184;2024-01-11T06:17:41;-5.90;99.90
1297;DHT22;641;48.492;9.184;2024-01-11T06:20:07;-5.90;99.90
1297;DHT22;641;48.492;9.184;2024-01-11T06:22:33;-5.90;99.90
1297;DHT22;641;48.492;9.184;2024-01-11T06:24:58;-6.30;99.90
1297;DHT22;641;48.492;9.184;2024-01-11T06:27:25;-6.40;99.90
1297;DHT22;641;48.492;9.184;2024-01-11T06:29:50;-6.20;99.90
1297;DHT22;641;48.492;9.184;2024-01-11T06:32:16;-6.10;99.90
1297;DHT22;641;48.492;9.184;2024-01-11T06:34:41;-6.70;99.90
1297;DHT22;641;48.492;9.184;2024-01-11T06:37:11;-7.00;99.90
1297;DHT22;641;48.492;9.184;2024-01-11T06:39:36;-7.10;99.90
1297;DHT22;641;48.492;9.184;2024-01-11T06:42:02;-7.30;99.90
1297;DHT22;641;48.492;9.184;2024-01-11T06:44:28;-7.40;99.90
1297;DHT22;641;48.492;9.184;2024-01-11T06:46:53;-7.40;99.90
1297;DHT22;641;48.492;9.184;2024-01-11T06:49:19;-7.30;99.90
1297;DHT22;641;48.492;9.184;2024-01-11T06:51:44;-7.10;99.90
1297;DHT22;641;48.492;9.184;2024-01-11T06:54:10;-7.00;99.90
1297;DHT22;641;48.492;9.184;2024-01-11T06:56:35;-7.00;99.90
1297;DHT22;641;48.492;9.184;2024-01-11T06:59:01;-6.70;99.90
1297;DHT22;641;48.492;9.184;2024-01-11T07:01:26;-6.60;99.90
1297;DHT22;641;48.492;9.184;2024-01-11T07:03:52;-6.40;99.90
1297;DHT22;641;48.492;9.184;2024-01-11T07:06:18;-6.30;99.90
1297;DHT22;641;48.492;9.184;2024-01-11T07:08:43;-6.10;99.90
1297;DHT22;641;48.492;9.184;2024-01-11T07:11:09;-6.10;99.90
1297;DHT22;641;48.492;9.184;2024-01-11T07:13:35;-6.00;99.90
1297;DHT22;641;48.492;9.184;2024-01-11T07:16:01;-5.90;99.90
1297;DHT22;641;48.492;9.184;2024-01-11T07:18:28;-5.80;99.90
1297;DHT22;641;48.492;9.184;2024-01-11T07:20:56;-5.80;99.90
1297;DHT22;641;48.492;9.184;2024-01-11T07:23:23;-5.80;99.90
1297;DHT22;641;48.492;9.184;2024-01-11T07:25:49;-6.30;99.90
1297;DHT22;641;48.492;9.184;2024-01-11T07:28:15;-6.50;99.90
1297;DHT22;641;48.492;9.184;2024-01-11T07:30:42;-6.00;99.90
1297;DHT22;641;48.492;9.184;2024-01-11T07:33:08;-6.30;99.90
1297;DHT22;641;48.492;9.184;2024-01-11T07:35:34;-6.30;99.90
1297;DHT22;641;48.492;9.184;2024-01-11T07:38:00;-6.00;99.90
1297;DHT22;641;48.492;9.184;2024-01-11T07:40:26;-6.20;99.90
1297;DHT22;641;48.492;9.184;2024-01-11T07:42:51;-6.10;99.90
1297;DHT22;641;48.492;9.184;2024-01-11T07:45:17;-6.20;99.90
1297;DHT22;641;48.492;9.184;2024-01-11T07:47:44;-6.60;99.90
1297;DHT22;641;48.492;9.184;2024-01-11T07:50:10;-6.50;99.90
1297;DHT22;641;48.492;9.184;2024-01-11T07:52:36;-6.30;99.90
1297;DHT22;641;48.492;9.184;2024-01-11T07:55:02;-6.10;99.90
1297;DHT22;641;48.492;9.184;2024-01-11T07:57:35;-5.70;99.90
1297;DHT22;641;48.492;9.184;2024-01-11T08:00:01;-5.40;99.90
1297;DHT22;641;48.492;9.184;2024-01-11T08:02:28;-5.20;99.90
1297;DHT22;641;48.492;9.184;2024-01-11T08:04:54;-5.40;99.90
1297;DHT22;641;48.492;9.184;2024-01-11T08:07:20;-5.30;99.90
1297;DHT22;641;48.492;9.184;2024-01-11T08:09:46;-5.40;99.90
1297;DHT22;641;48.492;9.184;2024-01-11T08:12:12;-5.30;99.90
1297;DHT22;641;48.492;9.184;2024-01-11T08:14:38;-5.40;99.90
1297;DHT22;641;48.492;9.184;2024-01-11T08:17:04;-5.40;99.90
1297;DHT22;641;48.492;9.184;2024-01-11T08:19:30;-5.40;99.90
1297;DHT22;641;48.492;9.184;2024-01-11T08:21:56;-5.30;99.90
1297;DHT22;641;48.492;9.184;2024-01-11T08:24:22;-5.10;99.90
1297;DHT22;641;48.492;9.184;2024-01-11T08:26:47;-5.30;99.90
1297;DHT22;641;48.492;9.184;2024-01-11T08:29:13;-5.80;99.90
1297;DHT22;641;48.492;9.184;2024-01-11T08:31:39;-6.00;99.90
1297;DHT22;641;48.492;9.184;2024-01-11T08:34:05;-5.90;99.90
1297;DHT22;641;48.492;9.184;2024-01-11T08:36:31;-5.80;99.90
1297;DHT22;641;48.492;9.184;2024-01-11T08:39:01;-5.60;99.90
1297;DHT22;641;48.492;9.184;2024-01-11T08:41:28;-5.80;99.90
1297;DHT22;641;48.492;9.184;2024-01-11T08:43:53;-5.80;99.90
1297;DHT22;641;48.492;9.184;2024-01-11T08:46:28;-5.70;99.90
1297;DHT22;641;48.492;9.184;2024-01-11T08:48:56;-5.50;99.90
1297;DHT22;641;48.492;9.184;2024-01-11T08:51:22;-5.40;99.90
1297;DHT22;641;48.492;9.184;2024-01-11T08:53:48;-5.40;99.90
1297;DHT22;641;48.492;9.184;2024-01-11T08:56:13;-5.20;99.90
1297;DHT22;641;48.492;9.184;2024-01-11T08:58:41;-4.80;99.90
1297;DHT22;641;48.492;9.184;2024-01-11T09:01:07;-4.60;99.90
1297;DHT22;641;48.492;9.184;2024-01-11T09:03:36;-4.50;99.90
1297;DHT22;641;48.492;9.184;2024-01-11T09:06:03;-4.40;99.90
1297;DHT22;641;48.492;9.184;2024-01-11T09:08:29;-4.40;99.90
1297;DHT22;641;48.492;9.184;2024-01-11T09:10:55;-4.20;99.90
1297;DHT22;641;48.492;9.184;2024-01-11T09:13:21;-4.60;99.90
1297;DHT22;641;48.492;9.184;2024-01-11T09:15:47;-4.90;99.90
1297;DHT22;641;48.492;9.184;2024-01-11T09:18:12;-4.80;99.90
1297;DHT22;641;48.492;9.184;2024-01-11T09:20:38;-4.40;99.90
1297;DHT22;641;48.492;9.184;2024-01-11T09:23:05;-4.40;99.90
1297;DHT22;641;48.492;9.184;2024-01-11T09:25:31;-4.40;99.90
1297;DHT22;641;48.492;9.184;2024-01-11T09:27:56;-4.50;99.90
1297;DHT22;641;48.492;9.184;2024-01-11T09:30:22;-4.40;99.90
1297;DHT22;641;48.492;9.184;2024-01-11T09:32:48;-4.30;99.90
1297;DHT22;641;48.492;9.184;2024-01-11T09:35:14;-4.20;99.90
1297;DHT22;641;48.492;9.184;2024-01-11T09:37:40;-4.30;99.90
1297;DHT22;641;48.492;9.184;2024-01-11T09:40:06;-4.30;99.90
1297;DHT22;641;48.492;9.184;2024-01-11T09:42:39;-4.00;99.90
1297;DHT22;641;48.492;9.184;2024-01-11T09:45:10;-4.10;99.90
1297;DHT22;641;48.492;9.184;2024-01-11T09:47:38;-4.20;99.90
1297;DHT22;641;48.492;9.184;2024-01-11T09:50:05;-4.00;99.90
1297;DHT22;641;48.492;9.184;2024-01-11T09:52:31;-4.00;99.90
1297;DHT22;641;48.492;9.184;2024-01-11T09:54:58;-4.00;99.90
1297;DHT22;641;48.492;9.184;2024-01-11T09:57:30;-4.00;99.90
1297;DHT22;641;48.492;9.184;2024-01-11T09:59:57;-4.10;99.90
1297;DHT22;641;48.492;9.184;2024-01-11T10:02:24;-4.10;99.90
1297;DHT22;641;48.492;9.184;2024-01-11T10:04:52;-4.00;99.90
1297;DHT22;641;48.492;9.184;2024-01-11T10:07:22;-4.20;99.90
1297;DHT22;641;48.492;9.184;2024-01-11T10:09:48;-4.50;99.90
1297;DHT22;641;48.492;9.184;2024-01-11T10:12:14;-4.60;99.90
1297;DHT22;641;48.492;9.184;2024-01-11T10:14:40;-4.60;99.90
1297;DHT22;641;48.492;9.184;2024-01-11T10:17:07;-4.60;99.90
1297;DHT22;641;48.492;9.184;2024-01-11T10:19:32;-4.30;99.90
1297;DHT22;641;48.492;9.184;2024-01-11T10:21:58;-4.30;99.90
1297;DHT22;641;48.492;9.184;2024-01-11T10:24:26;-4.20;99.90
1297;DHT22;641;48.492;9.184;2024-01-11T10:26:57;-4.00;99.90
1297;DHT22;641;48.492;9.184;2024-01-11T10:29:30;-3.90;99.90
1297;DHT22;641;48.492;9.184;2024-01-11T10:31:56;-4.00;99.90
1297;DHT22;641;48.492;9.184;2024-01-11T10:34:23;-4.20;99.90
1297;DHT22;641;48.492;9.184;2024-01-11T10:36:50;-4.10;99.90
1297;DHT22;641;48.492;9.184;2024-01-11T10:39:16;-4.00;99.90
1297;DHT22;641;48.492;9.184;2024-01-11T10:41:47;-3.70;99.90
1297;DHT22;641;48.492;9.184;2024-01-11T10:44:22;-3.60;99.90
1297;DHT22;641;48.492;9.184;2024-01-11T10:46:49;-3.70;99.90
1297;DHT22;641;48.492;9.184;2024-01-11T10:49:18;-3.50;99.90
1297;DHT22;641;48.492;9.184;2024-01-11T10:52:03;-3.40;99.90
1297;DHT22;641;48.492;9.184;2024-01-11T10:54:33;-3.50;99.90
1297;DHT22;641;48.492;9.184;2024-01-11T10:57:00;-3.40;99.90
1297;DHT22;641;48.492;9.184;2024-01-11T10:59:29;-3.70;99.90
1297;DHT22;641;48.492;9.184;2024-01-11T11:01:58;-3.90;99.90
1297;DHT22;641;48.492;9.184;2024-01-11T11:04:29;-3.70;99.90
1297;DHT22;641;48.492;9.184;2024-01-11T11:06:56;-3.50;99.90
1297;DHT22;641;48.492;9.184;2024-01-11T11:09:23;-3.50;99.90
1297;DHT22;641;48.492;9.184;2024-01-11T11:11:49;-3.40;99.90
1297;DHT22;641;48.492;9.184;2024-01-11T11:14:15;-3.20;99.90
1297;DHT22;641;48.492;9.184;2024-01-11T11:16:41;-3.10;99.90
1297;DHT22;641;48.492;9.184;2024-01-11T11:19:07;-3.00;99.90
1297;DHT22;641;48.492;9.184;2024-01-11T11:21:42;-3.00;99.90
1297;DHT22;641;48.492;9.184;2024-01-11T11:24:07;-3.00;99.90
1297;DHT22;641;48.492;9.184;2024-01-11T11:26:35;-3.00;99.90
1297;DHT22;641;48.492;9.184;2024-01-11T11:29:00;-2.80;99.90
1297;DHT22;641;48.492;9.184;2024-01-11T11:31:43;-2.90;99.90
1297;DHT22;641;48.492;9.184;2024-01-11T11:34:12;-2.70;99.90
1297;DHT22;641;48.492;9.184;2024-01-11T11:36:40;-2.90;99.90
1297;DHT22;641;48.492;9.184;2024-01-11T11:39:10;-2.90;99.90
1297;DHT22;641;48.492;9.184;2024-01-11T11:41:39;-3.00;99.90
1297;DHT22;641;48.492;9.184;2024-01-11T11:44:05;-3.00;99.90
1297;DHT22;641;48.492;9.184;2024-01-11T11:46:32;-3.00;99.90
1297;DHT22;641;48.492;9.184;2024-01-11T11:48:58;-2.90;99.90
1297;DHT22;641;48.492;9.184;2024-01-11T11:51:25;-3.00;99.90
1297;DHT22;641;48.492;9.184;2024-01-11T11:53:51;-3.00;99.90
1297;DHT22;641;48.492;9.184;2024-01-11T11:56:19;-3.20;99.90
1297;DHT22;641;48.492;9.184;2024-01-11T11:58:46;-3.20;99.90
1297;DHT22;641;48.492;9.184;2024-01-11T12:01:16;-3.20;99.90
1297;DHT22;641;48.492;9.184;2024-01-11T12:03:45;-3.20;99.90
1297;DHT22;641;48.492;9.184;2024-01-11T12:06:15;-3.20;99.90
1297;DHT22;641;48.492;9.184;2024-01-11T12:08:42;-3.30;99.90
1297;DHT22;641;48.492;9.184;2024-01-11T12:11:08;-3.30;99.90
1297;DHT22;641;48.492;9.184;2024-01-11T12:13:35;-3.20;99.90
1297;DHT22;641;48.492;9.184;2024-01-11T12:16:00;-3.10;99.90
1297;DHT22;641;48.492;9.184;2024-01-11T12:18:26;-3.20;99.90
1297;DHT22;641;48.492;9.184;2024-01-11T12:20:52;-3.10;99.90
1297;DHT22;641;48.492;9.184;2024-01-11T12:23:20;-3.20;99.90
1297;DHT22;641;48.492;9.184;2024-01-11T12:25:46;-3.20;99.90
1297;DHT22;641;48.492;9.184;2024-01-11T12:28:12;-3.20;99.90
1297;DHT22;641;48.492;9.184;2024-01-11T12:30:38;-3.30;99.90
1297;DHT22;641;48.492;9.184;2024-01-11T12:33:04;-3.30;99.90
1297;DHT22;641;48.492;9.184;2024-01-11T12:35:31;-3.20;99.90
1297;DHT22;641;48.492;9.184;2024-01-11T12:38:01;-3.20;99.90
1297;DHT22;641;48.492;9.184;2024-01-11T12:40:28;-3.10;99.90
1297;DHT22;641;48.492;9.184;2024-01-11T12:42:56;-3.10;99.90
1297;DHT22;641;48.492;9.184;2024-01-11T12:45:24;-3.10;99.90
1297;DHT22;641;48.492;9.184;2024-01-11T12:47:51;-3.00;99.90
1297;DHT22;641;48.492;9.184;2024-01-11T12:50:17;-3.00;99.90
1297;DHT22;641;48.492;9.184;2024-01-11T12:52:43;-3.00;99.90
1297;DHT22;641;48.492;9.184;2024-01-11T12:55:18;-3.00;99.90
1297;DHT22;641;48.492;9.184;2024-01-11T12:57:44;-2.90;99.90
1297;DHT22;641;48.492;9.184;2024-01-11T13:00:13;-2.90;99.90
1297;DHT22;641;48.492;9.184;2024-01-11T13:02:40;-2.80;99.90
1297;DHT22;641;48.492;9.184;2024-01-11T13:05:06;-2.80;99.90
1297;DHT22;641;48.492;9.184;2024-01-11T13:07:34;-2.80;99.90
1297;DHT22;641;48.492;9.184;2024-01-11T13:10:02;-2.80;99.90
1297;DHT22;641;48.492;9.184;2024-01-11T13:12:29;-2.70;99.90
1297;DHT22;641;48.492;9.184;2024-01-11T13:14:55;-2.60;99.90
1297;DHT22;641;48.492;9.184;2024-01-11T13:17:21;-2.60;99.90
1297;DHT22;641;48.492;9.184;2024-01-11T13:19:47;-2.50;99.90
1297;DHT22;641;48.492;9.184;2024-01-11T13:22:12;-2.50;99.90
1297;DHT22;641;48.492;9.184;2024-01-11T13:24:38;-2.40;99.90
1297;DHT22;641;48.492;9.184;2024-01-11T13:27:04;-2.40;99.90
1297;DHT22;641;48.492;9.184;2024-01-11T13:29:29;-2.40;99.90
1297;DHT22;641;48.492;9.184;2024-01-11T13:31:55;-2.40;99.90
1297;DHT22;641;48.492;9.184;2024-01-11T13:34:20;-2.30;99.90
1297;DHT22;641;48.492;9.184;2024-01-11T13:36:46;-2.30;99.90
1297;DHT22;641;48.492;9.184;2024-01-11T13:39:12;-2.30;99.90
1297;DHT22;641;48.492;9.184;2024-01-11T13:41:37;-2.30;99.90
1297;DHT22;641;48.492;9.184;2024-01-11T13:44:03;-2.30;99.90
1297;DHT22;641;48.492;9.184;2024-01-11T13:46:32;-2.30;99.90
1297;DHT22;641;48.492;9.184;2024-01-11T13:48:58;-2.20;99.90
1297;DHT22;641;48.492;9.184;2024-01-11T13:51:23;-2.10;99.90
1297;DHT22;641;48.492;9.184;2024-01-11T13:53:49;-2.10;99.90
1297;DHT22;641;48.492;9.184;2024-01-11T13:56:15;-2.00;99.90
1297;DHT22;641;48.492;9.184;2024-01-11T13:58:40;-2.00;99.90
1297;DHT22;641;48.492;9.184;2024-01-11T14:01:06;-1.90;99.90
1297;DHT22;641;48.492;9.184;2024-01-11T14:03:33;-1.90;99.90
1297;DHT22;641;48.492;9.184;2024-01-11T14:05:58;-1.80;99.90
1297;DHT22;641;48.492;9.184;2024-01-11T14:08:25;-1.90;99.90
1297;DHT22;641;48.492;9.184;2024-01-11T14:10:51;-1.80;99.90
1297;DHT22;641;48.492;9.184;2024-01-11T14:13:16;-1.90;99.90
1297;DHT22;641;48.492;9.184;2024-01-11T14:15:42;-1.80;99.90
1297;DHT22;641;48.492;9.184;2024-01-11T14:18:07;-1.70;99.90
1297;DHT22;641;48.492;9.184;2024-01-11T14:20:34;-1.70;99.90
1297;DHT22;641;48.492;9.184;2024-01-11T14:23:00;-1.80;99.90
1297;DHT22;641;48.492;9.184;2024-01-11T14:25:26;-1.80;99.90
1297;DHT22;641;48.492;9.184;2024-01-11T14:27:52;-1.80;99.90
1297;DHT22;641;48.492;9.184;2024-01-11T14:30:18;-1.80;99.90
1297;DHT22;641;48.492;9.184;2024-01-11T14:32:44;-1.80;99.90
1297;DHT22;641;48.492;9.184;2024-01-11T14:35:10;-1.90;99.90
1297;DHT22;641;48.492;9.184;2024-01-11T14:37:38;-2.00;99.90
1297;DHT22;641;48.492;9.184;2024-01-11T14:40:05;-2.00;99.90
1297;DHT22;641;48.492;9.184;2024-01-11T14:42:31;-2.10;99.90
1297;DHT22;641;48.492;9.184;2024-01-11T14:44:56;-2.10;99.90
1297;DHT22;641;48.492;9.184;2024-01-11T14:47:22;-2.10;99.90
1297;DHT22;641;48.492;9.184;2024-01-11T14:49:48;-2.10;99.90
1297;DHT22;641;48.492;9.184;2024-01-11T14:52:14;-2.10;99.90
1297;DHT22;641;48.492;9.184;2024-01-11T14:54:39;-2.10;99.90
1297;DHT22;641;48.492;9.184;2024-01-11T14:57:05;-2.20;99.90
1297;DHT22;641;48.492;9.184;2024-01-11T14:59:31;-2.20;99.90
1297;DHT22;641;48.492;9.184;2024-01-11T15:01:59;-2.30;99.90
1297;DHT22;641;48.492;9.184;2024-01-11T15:04:25;-2.20;99.90
1297;DHT22;641;48.492;9.184;2024-01-11T15:06:50;-2.20;99.90
1297;DHT22;641;48.492;9.184;2024-01-11T15:09:16;-2.30;99.90
1297;DHT22;641;48.492;9.184;2024-01-11T15:11:42;-2.30;99.90
1297;DHT22;641;48.492;9.184;2024-01-11T15:14:08;-2.40;99.90
1297;DHT22;641;48.492;9.184;2024-01-11T15:16:37;-2.40;99.90
1297;DHT22;641;48.492;9.184;2024-01-11T15:19:02;-2.40;99.90
1297;DHT22;641;48.492;9.184;2024-01-11T15:21:29;-2.40;99.90
1297;DHT22;641;48.492;9.184;2024-01-11T15:23:55;-2.50;99.90
1297;DHT22;641;48.492;9.184;2024-01-11T15:26:21;-2.50;99.90
1297;DHT22;641;48.492;9.184;2024-01-11T15:28:47;-2.60;99.90
1297;DHT22;641;48.492;9.184;2024-01-11T15:31:13;-2.60;99.90
1297;DHT22;641;48.492;9.184;2024-01-11T15:33:40;-2.60;99.90
1297;DHT22;641;48.492;9.184;2024-01-11T15:36:05;-2.60;99.90
1297;DHT22;641;48.492;9.184;2024-01-11T15:38:31;-2.50;99.90
1297;DHT22;641;48.492;9.184;2024-01-11T15:40:57;-2.60;99.90
1297;DHT22;641;48.492;9.184;2024-01-11T15:43:22;-2.70;99.90
1297;DHT22;641;48.492;9.184;2024-01-11T15:45:49;-2.70;99.90
1297;DHT22;641;48.492;9.184;2024-01-11T15:48:15;-2.80;99.90
1297;DHT22;641;48.492;9.184;2024-01-11T15:50:41;-2.80;99.90
1297;DHT22;641;48.492;9.184;2024-01-11T15:53:06;-2.80;99.90
1297;DHT22;641;48.492;9.184;2024-01-11T15:55:33;-2.90;99.90
1297;DHT22;641;48.492;9.184;2024-01-11T15:57:59;-2.90;99.90
1297;DHT22;641;48.492;9.184;2024-01-11T16:00:26;-3.00;99.90
1297;DHT22;641;48.492;9.184;2024-01-11T16:02:52;-3.00;99.90
1297;DHT22;641;48.492;9.184;2024-01-11T16:05:18;-3.00;99.90
1297;DHT22;641;48.492;9.184;2024-01-11T16:07:44;-3.10;99.90
1297;DHT22;641;48.492;9.184;2024-01-11T16:10:09;-3.10;99.90